Time;durP1;ratioP1;P1;durP2;ratioP2;P2;SDS_P1;SDS_P2;PMS_P1;PMS_P2;Temp;Humidity;BMP_temperature;BMP_pressure;BME280_temperature;BME280_humidity;BME280_pressure;Samples;Min_cycle;Max_cycle;Signal;HPM_P1;HPM_P2
2022/11/05 00:10:30;;;;;;;9.23;4.70;;;;;;;6.92;95.30;101500.56;5032270;28;20041;-72
2022/11/05 00:18:27;;;;;;;7.75;3.47;;;;;;;6.64;95.58;101502.19;5031078;28;20049;-72
2022/11/05 00:20:53;;;;;;;7.15;3.90;;;;;;;6.57;95.92;101513.56;5031007;28;20037;-72
2022/11/05 00:26:05;;;;;;;6.47;3.42;;;;;;;6.47;95.73;101516.13;5031054;28;20046;-72
2022/11/05 00:28:32;;;;;;;6.05;3.50;;;;;;;6.43;95.72;101518.78;5031802;28;20453;-73
2022/11/05 00:31:03;;;;;;;5.78;3.35;;;;;;;6.34;95.78;101519.56;5030055;28;20060;-73
2022/11/05 00:33:28;;;;;;;7.20;3.65;;;;;;;6.27;95.81;101523.03;5032052;28;20522;-72
2022/11/05 00:35:54;;;;;;;11.52;3.42;;;;;;;6.16;95.72;101525.59;5030429;28;20116;-73
2022/11/05 00:38:19;;;;;;;6.78;3.58;;;;;;;6.06;94.87;101528.13;5031959;28;20449;-73
2022/11/05 00:40:45;;;;;;;6.15;3.83;;;;;;;6.01;95.85;101526.38;5009585;28;20477;-73
2022/11/05 00:45:55;;;;;;;8.25;3.67;;;;;;;6.01;96.23;101530.75;5031742;28;20501;-73
2022/11/05 00:51:05;;;;;;;6.07;3.53;;;;;;;5.98;96.50;101534.25;5030228;28;20172;-72
2022/11/05 00:53:31;;;;;;;10.65;4.05;;;;;;;5.94;96.27;101536.81;5030173;28;20512;-73
2022/11/05 00:55:57;;;;;;;6.78;3.97;;;;;;;5.88;96.05;101534.97;5031653;28;20041;-72
2022/11/05 00:58:22;;;;;;;11.35;3.90;;;;;;;5.87;96.60;101542.84;5030040;28;20102;-73
2022/11/05 01:00:57;;;;;;;8.95;3.88;;;;;;;5.86;97.45;101547.25;5030265;28;20037;-73
2022/11/05 01:03:31;;;;;;;8.02;3.85;;;;;;;5.83;98.29;101552.44;5028329;28;20029;-73
2022/11/05 01:06:06;;;;;;;10.82;4.45;;;;;;;5.81;98.37;101544.56;5026285;28;20040;-72
2022/11/05 01:08:32;;;;;;;11.23;4.75;;;;;;;5.79;99.35;101548.06;5030052;28;20485;-72
2022/11/05 01:10:58;;;;;;;7.07;4.30;;;;;;;5.75;98.70;101551.50;5029856;28;20021;-72
2022/11/05 01:13:26;;;;;;;10.07;5.00;;;;;;;5.73;98.92;101561.13;5031412;28;20038;-73
2022/11/05 01:15:53;;;;;;;9.95;4.63;;;;;;;5.69;99.79;101559.34;5031242;28;20182;-73
2022/11/05 01:18:20;;;;;;;8.82;5.18;;;;;;;5.66;99.48;101564.53;5029172;28;20057;-72
2022/11/05 01:20:46;;;;;;;6.47;4.28;;;;;;;5.61;99.19;101567.13;5031359;28;20033;-72
2022/11/05 01:23:11;;;;;;;7.97;5.30;;;;;;;5.60;100.00;101570.63;5033053;28;20040;-72
2022/11/05 01:25:37;;;;;;;7.45;4.72;;;;;;;5.58;99.90;101570.59;5042964;28;20117;-72
2022/11/05 01:28:03;;;;;;;9.73;4.95;;;;;;;5.52;99.03;101573.19;5027932;28;20060;-72
2022/11/05 01:30:29;;;;;;;9.23;4.78;;;;;;;5.51;99.40;101584.53;5042117;28;20084;-72
2022/11/05 01:32:54;;;;;;;8.18;4.25;;;;;;;5.46;99.09;101582.72;5047062;28;20457;-72
2022/11/05 01:35:20;;;;;;;8.93;4.80;;;;;;;5.46;99.59;101582.72;5045691;28;20102;-72
2022/11/05 01:37:46;;;;;;;7.50;4.63;;;;;;;5.46;100.00;101577.47;5046985;28;20033;-72
2022/11/05 01:40:15;;;;;;;8.55;4.30;;;;;;;5.43;99.88;101577.44;5023068;28;20048;-72
2022/11/05 01:42:40;;;;;;;5.75;3.95;;;;;;;5.36;99.74;101582.63;5044026;28;20431;-72
2022/11/05 01:45:14;;;;;;;9.95;4.43;;;;;;;5.33;100.00;101587.84;5047660;28;20017;-72
2022/11/05 01:47:46;;;;;;;7.40;4.35;;;;;;;5.31;100.00;101588.69;5041601;28;20035;-72
2022/11/05 01:50:21;;;;;;;6.70;3.83;;;;;;;5.29;100.00;101588.69;5044550;28;20116;-73
2022/11/05 01:52:50;;;;;;;11.40;4.57;;;;;;;5.29;100.00;101596.56;5039755;28;20036;-72
2022/11/05 01:55:21;;;;;;;8.38;4.68;;;;;;;5.30;100.00;101584.31;5049933;28;20025;-72
2022/11/05 01:57:48;;;;;;;7.25;4.10;;;;;;;5.32;100.00;101588.72;5043949;28;20038;-72
2022/11/05 02:00:15;;;;;;;13.15;4.25;;;;;;;5.32;100.00;101579.97;5050706;28;20091;-72
2022/11/05 02:02:41;;;;;;;14.55;4.10;;;;;;;5.34;100.00;101583.47;5035160;28;20041;-72
2022/11/05 02:05:11;;;;;;;6.95;3.92;;;;;;;5.36;100.00;101577.38;5039671;28;20534;-73
2022/11/05 02:07:37;;;;;;;7.63;4.07;;;;;;;5.34;100.00;101573.88;5040706;28;20043;-72
2022/11/05 02:10:12;;;;;;;6.85;3.78;;;;;;;5.37;100.00;101567.78;5038865;28;20096;-77
2022/11/05 02:12:41;;;;;;;7.32;3.97;;;;;;;5.38;100.00;101564.25;5029606;28;20038;-77
2022/11/05 02:15:11;;;;;;;9.13;4.00;;;;;;;5.36;100.00;101566.84;5030850;28;20022;-77
2022/11/05 02:17:45;;;;;;;7.80;3.75;;;;;;;5.36;100.00;101560.72;5029457;28;20037;-77
2022/11/05 02:20:23;;;;;;;9.70;4.20;;;;;;;5.36;100.00;101573.88;5037632;28;20028;-77
2022/11/05 02:22:58;;;;;;;10.93;4.07;;;;;;;5.36;100.00;101573.88;5030394;28;20033;-77
2022/11/05 02:25:26;;;;;;;7.97;3.65;;;;;;;5.35;100.00;101566.88;5030582;28;20208;-77
2022/11/05 02:28:07;;;;;;;10.25;4.47;;;;;;;5.32;100.00;101569.47;5033190;28;20028;-77
2022/11/05 02:30:39;;;;;;;7.63;3.72;;;;;;;5.29;100.00;101566.78;5050466;28;20040;-77
2022/11/05 02:33:14;;;;;;;7.75;4.00;;;;;;;5.27;100.00;101577.28;5050507;28;20564;-77
2022/11/05 02:36:07;;;;;;;7.18;3.70;;;;;;;5.26;100.00;101572.00;5032161;28;20091;-77
2022/11/05 02:39:29;;;;;;;7.72;3.85;;;;;;;5.25;100.00;101565.00;5032312;28;20040;-77
2022/11/05 02:42:14;;;;;;;7.00;3.78;;;;;;;5.22;100.00;101565.84;5033871;28;20041;-77
2022/11/05 02:44:58;;;;;;;7.95;3.72;;;;;;;5.22;100.00;101570.19;5046177;28;20103;-77
2022/11/05 02:47:27;;;;;;;9.05;3.65;;;;;;;5.19;100.00;101565.78;5018350;28;20041;-77
2022/11/05 02:50:08;;;;;;;7.15;3.55;;;;;;;5.20;100.00;101567.56;5034733;28;20083;-77
2022/11/05 02:52:49;;;;;;;9.00;4.00;;;;;;;5.18;100.00;101572.78;5042948;28;20087;-77
2022/11/05 02:55:33;;;;;;;8.00;3.90;;;;;;;5.17;100.00;101567.53;5048938;28;20040;-77
2022/11/05 02:58:00;;;;;;;9.23;3.85;;;;;;;5.15;100.00;101571.88;5053184;28;20037;-77
2022/11/05 03:00:51;;;;;;;6.65;3.63;;;;;;;5.15;100.00;101569.25;5046090;28;20482;-77
2022/11/05 03:03:21;;;;;;;8.55;4.10;;;;;;;5.10;100.00;101560.44;5042846;28;20393;-77
2022/11/05 03:06:20;;;;;;;8.38;3.58;;;;;;;5.09;100.00;101561.28;5047550;28;20025;-77
2022/11/05 03:09:24;;;;;;;6.60;3.55;;;;;;;5.09;100.00;101558.66;5037230;28;20052;-77
2022/11/05 03:12:08;;;;;;;8.45;3.75;;;;;;;5.06;100.00;101562.13;5038850;28;20064;-77
2022/11/05 03:14:49;;;;;;;6.93;3.72;;;;;;;5.04;100.00;101568.22;5031443;28;20036;-77
2022/11/05 03:17:46;;;;;;;7.93;3.78;;;;;;;5.02;100.00;101569.94;5040250;28;20037;-77
2022/11/05 03:20:20;;;;;;;5.57;3.97;;;;;;;5.02;100.00;101565.59;5036685;28;20049;-77
2022/11/05 03:23:17;;;;;;;10.90;3.90;;;;;;;5.01;100.00;101570.81;5052602;28;20508;-77
2022/11/05 03:25:48;;;;;;;6.15;3.80;;;;;;;4.99;100.00;101569.91;5049933;28;20037;-77
2022/11/05 03:28:15;;;;;;;6.88;4.13;;;;;;;4.96;100.00;101574.25;5053813;28;20428;-77
2022/11/05 03:30:43;;;;;;;7.82;4.13;;;;;;;4.94;100.00;101573.34;5052804;28;20484;-77
2022/11/05 03:33:15;;;;;;;8.55;4.32;;;;;;;4.92;100.00;101577.72;5040076;28;20073;-77
2022/11/05 03:35:46;;;;;;;8.07;4.45;;;;;;;4.91;100.00;101572.44;5049713;28;20082;-77
2022/11/05 03:38:23;;;;;;;11.25;4.18;;;;;;;4.88;100.00;101568.03;5022228;28;20090;-77
2022/11/05 03:40:53;;;;;;;7.65;3.95;;;;;;;4.87;100.00;101574.16;5033347;28;20080;-77
2022/11/05 03:43:21;;;;;;;8.68;4.55;;;;;;;4.86;100.00;101568.88;5040892;28;20037;-77
2022/11/05 03:45:56;;;;;;;7.00;4.20;;;;;;;4.83;100.00;101574.09;5040604;28;20018;-77
2022/11/05 03:48:25;;;;;;;10.25;4.40;;;;;;;4.79;100.00;101570.53;5019890;28;20029;-77
2022/11/05 03:51:18;;;;;;;10.05;4.65;;;;;;;4.79;100.00;101569.66;5046315;28;20465;-77
2022/11/05 03:53:55;;;;;;;12.13;4.25;;;;;;;4.76;100.00;101580.13;5026266;28;20033;-77
2022/11/05 03:56:55;;;;;;;8.13;4.18;;;;;;;4.76;100.00;101583.63;5049044;28;20021;-77
2022/11/05 03:59:22;;;;;;;8.60;4.37;;;;;;;4.69;100.00;101585.28;5044978;28;20083;-77
2022/11/05 04:01:48;;;;;;;9.80;4.30;;;;;;;4.66;100.00;101582.59;5015911;28;20276;-77
2022/11/05 04:04:14;;;;;;;8.20;4.93;;;;;;;4.64;100.00;101586.94;5046601;28;20105;-77
2022/11/05 04:14:54;;;;;;;12.65;5.32;;;;;;;4.61;100.00;101589.53;5053030;28;20127;-77
2022/11/05 04:17:19;;;;;;;11.40;5.70;;;;;;;4.63;100.00;101598.31;5049026;28;20033;-77
2022/11/05 04:25:16;;;;;;;11.88;5.65;;;;;;;4.59;100.00;101601.75;5024906;28;20492;-77
2022/11/05 04:27:43;;;;;;;11.95;5.57;;;;;;;4.58;100.00;101604.38;5050829;28;20028;-77
2022/11/05 04:30:18;;;;;;;11.45;5.85;;;;;;;4.57;100.00;101602.56;5045529;28;20492;-77
2022/11/05 04:33:04;;;;;;;12.10;5.72;;;;;;;4.56;100.00;101601.72;5031160;28;20481;-77
2022/11/05 04:35:32;;;;;;;9.13;6.28;;;;;;;4.55;100.00;101609.53;5038348;28;20033;-77
2022/11/05 04:37:58;;;;;;;14.68;6.35;;;;;;;4.53;100.00;101605.16;5051089;28;20128;-77
2022/11/05 04:40:24;;;;;;;11.63;5.88;;;;;;;4.52;100.00;101606.03;5041136;28;20041;-77
2022/11/05 04:42:51;;;;;;;11.18;5.95;;;;;;;4.52;100.00;101607.75;5033621;28;20035;-77
2022/11/05 04:45:17;;;;;;;16.48;6.38;;;;;;;4.49;100.00;101603.34;5040108;28;20029;-77
2022/11/05 04:47:43;;;;;;;10.55;6.35;;;;;;;4.46;100.00;101603.31;5051603;28;20050;-77
2022/11/05 04:50:09;;;;;;;11.65;6.47;;;;;;;4.45;100.00;101605.88;5037628;28;20033;-77
2022/11/05 04:52:35;;;;;;;13.30;6.55;;;;;;;4.44;100.00;101610.25;5051042;28;20087;-77
2022/11/05 04:55:00;;;;;;;13.93;6.60;;;;;;;4.44;100.00;101606.75;5021959;28;20485;-77
2022/11/05 04:57:26;;;;;;;15.43;6.60;;;;;;;4.42;100.00;101611.97;5038141;28;20118;-77
2022/11/05 04:59:53;;;;;;;13.52;6.72;;;;;;;4.41;100.00;101617.22;5048867;28;20100;-77
2022/11/05 05:02:19;;;;;;;12.23;7.25;;;;;;;4.39;100.00;101617.19;5051847;28;20179;-77
2022/11/05 05:04:44;;;;;;;12.80;6.70;;;;;;;4.38;100.00;101619.78;5048363;28;20224;-77
2022/11/05 05:07:10;;;;;;;16.65;6.80;;;;;;;4.36;100.00;101621.50;5038001;28;20016;-77
2022/11/05 05:09:35;;;;;;;12.15;6.93;;;;;;;4.35;100.00;101625.84;5050543;28;20072;-77
2022/11/05 05:12:01;;;;;;;11.70;7.20;;;;;;;4.34;100.00;101623.22;5036866;28;20075;-77
2022/11/05 05:14:27;;;;;;;12.93;6.80;;;;;;;4.33;100.00;101619.72;5051984;28;20029;-77
2022/11/05 05:16:52;;;;;;;21.70;7.65;;;;;;;4.32;100.00;101626.66;5050413;28;20049;-77
2022/11/05 05:19:18;;;;;;;19.38;7.45;;;;;;;4.30;100.00;101623.16;5037565;28;20523;-77
2022/11/05 05:21:43;;;;;;;14.00;7.63;;;;;;;4.27;100.00;101620.47;5042783;28;20033;-77
2022/11/05 05:24:15;;;;;;;11.88;7.53;;;;;;;4.27;100.00;101630.09;5046902;28;20053;-77
2022/11/05 05:26:43;;;;;;;13.93;7.63;;;;;;;4.25;100.00;101630.06;5041450;28;20036;-77
2022/11/05 05:29:09;;;;;;;14.70;7.20;;;;;;;4.24;100.00;101633.53;5035335;28;20034;-77
2022/11/05 05:31:35;;;;;;;15.40;6.90;;;;;;;4.23;100.00;101634.41;5038402;28;20164;-77
2022/11/05 05:34:01;;;;;;;12.32;6.50;;;;;;;4.24;100.00;101637.91;5049599;28;20035;-77
2022/11/05 05:36:27;;;;;;;13.10;7.35;;;;;;;4.25;100.00;101640.56;5017804;28;20042;-77
2022/11/05 05:38:52;;;;;;;16.02;6.75;;;;;;;4.24;100.00;101632.66;5030370;28;20037;-77
2022/11/05 05:41:18;;;;;;;12.98;7.82;;;;;;;4.22;100.00;101643.13;5034574;28;20033;-77
2022/11/05 05:43:43;;;;;;;13.95;7.15;;;;;;;4.22;100.00;101637.88;5041509;28;20036;-77
2022/11/05 05:46:11;;;;;;;16.20;8.43;;;;;;;4.22;100.00;101632.63;5033383;28;20044;-77
2022/11/05 05:48:37;;;;;;;14.93;8.02;;;;;;;4.21;100.00;101640.47;5049960;28;20044;-77
2022/11/05 05:51:05;;;;;;;21.38;7.68;;;;;;;4.21;100.00;101637.88;5051169;28;20067;-77
2022/11/05 05:53:31;;;;;;;14.48;7.45;;;;;;;4.22;100.00;101648.34;5037738;28;20476;-77
2022/11/05 05:55:58;;;;;;;11.63;7.03;;;;;;;4.21;100.00;101643.09;5051013;28;20472;-77
2022/11/05 05:58:25;;;;;;;12.75;7.72;;;;;;;4.19;100.00;101640.44;5042173;28;20037;-72
2022/11/05 06:00:54;;;;;;;11.63;7.43;;;;;;;4.19;100.00;101648.31;5030637;28;20030;-72
2022/11/05 06:03:19;;;;;;;11.80;7.20;;;;;;;4.16;100.00;101647.38;5039831;28;20044;-72
2022/11/05 06:05:45;;;;;;;17.05;8.75;;;;;;;4.15;100.00;101648.22;5049148;28;20036;-72
2022/11/05 06:08:10;;;;;;;16.88;8.63;;;;;;;4.13;100.00;101648.22;5039780;28;20045;-72
2022/11/05 06:10:36;;;;;;;20.38;9.02;;;;;;;4.13;100.00;101648.22;5020159;28;20025;-72
2022/11/05 06:13:02;;;;;;;17.52;7.90;;;;;;;4.13;100.00;101649.94;5043139;28;20114;-72
2022/11/05 06:15:28;;;;;;;16.02;8.70;;;;;;;4.12;100.00;101656.91;5050287;28;20409;-72
2022/11/05 06:17:53;;;;;;;14.55;8.40;;;;;;;4.10;100.00;101650.75;5046757;28;20045;-73
2022/11/05 06:20:19;;;;;;;12.23;8.23;;;;;;;4.12;100.00;101650.81;5025635;28;20460;-72
2022/11/05 06:22:53;;;;;;;13.70;7.47;;;;;;;4.10;100.00;101653.38;5047515;28;20333;-72
2022/11/05 06:25:19;;;;;;;15.75;8.77;;;;;;;4.08;100.00;101658.63;5042437;28;20116;-72
2022/11/05 06:27:44;;;;;;;17.23;8.23;;;;;;;4.06;100.00;101657.69;5048284;28;20425;-72
2022/11/05 06:30:10;;;;;;;15.90;8.52;;;;;;;4.05;100.00;101653.28;5048054;28;20464;-72
2022/11/05 06:32:35;;;;;;;17.27;8.43;;;;;;;4.05;100.00;101652.41;5050012;28;20087;-72
2022/11/05 06:35:01;;;;;;;17.30;8.18;;;;;;;4.03;100.00;101654.13;5042983;28;20128;-72
2022/11/05 06:37:27;;;;;;;15.27;8.65;;;;;;;4.03;100.00;101659.38;5050103;28;20116;-72
2022/11/05 06:39:53;;;;;;;11.35;7.60;;;;;;;4.03;100.00;101659.38;5037210;28;20037;-72
2022/11/05 06:42:18;;;;;;;14.00;8.18;;;;;;;4.02;100.00;101661.13;5010771;28;20462;-72
2022/11/05 06:44:43;;;;;;;16.73;8.60;;;;;;;4.01;100.00;101667.22;5046357;28;20370;-72
2022/11/05 06:47:10;;;;;;;17.02;8.05;;;;;;;3.99;100.00;101663.69;5042994;28;20025;-72
2022/11/05 06:49:35;;;;;;;14.15;8.38;;;;;;;4.00;100.00;101665.44;5048355;28;20087;-72
2022/11/05 06:52:00;;;;;;;14.40;8.02;;;;;;;3.99;100.00;101661.06;5047482;28;20021;-72
2022/11/05 06:54:26;;;;;;;14.32;7.57;;;;;;;3.98;100.00;101666.25;5031545;28;20037;-77
2022/11/05 06:56:51;;;;;;;12.70;7.47;;;;;;;3.96;100.00;101661.03;5009408;28;20054;-77
2022/11/05 06:59:17;;;;;;;16.20;7.65;;;;;;;3.97;100.00;101664.50;5021218;28;20045;-77
2022/11/05 07:01:42;;;;;;;13.50;8.02;;;;;;;3.98;100.00;101666.25;5030322;28;20520;-77
2022/11/05 07:04:10;;;;;;;16.90;8.18;;;;;;;3.99;100.00;101675.91;5030236;28;20061;-77
2022/11/05 07:06:35;;;;;;;15.07;7.85;;;;;;;4.01;100.00;101669.84;5042607;28;20029;-77
2022/11/05 07:09:01;;;;;;;14.93;8.10;;;;;;;4.03;100.00;101675.09;5036376;28;20469;-77
2022/11/05 07:11:26;;;;;;;9.68;7.03;;;;;;;4.05;100.00;101684.75;5044834;28;20024;-77
2022/11/05 07:13:51;;;;;;;14.25;7.25;;;;;;;4.06;100.00;101680.41;5048686;28;20064;-77
2022/11/05 07:16:17;;;;;;;25.63;7.78;;;;;;;4.05;100.00;101687.38;5044635;28;20152;-77
2022/11/05 07:18:43;;;;;;;10.15;7.25;;;;;;;4.07;100.00;101679.56;5042654;28;20064;-77
2022/11/05 07:21:08;;;;;;;12.93;7.57;;;;;;;4.08;100.00;101684.84;5026789;28;20109;-77
2022/11/05 07:23:33;;;;;;;12.18;7.90;;;;;;;4.12;100.00;101685.75;5016476;28;20037;-77
2022/11/05 07:25:59;;;;;;;9.75;6.75;;;;;;;4.12;100.00;101680.50;5042919;28;20080;-77
2022/11/05 07:28:24;;;;;;;16.05;8.40;;;;;;;4.17;100.00;101689.34;5040064;28;20126;-77
2022/11/05 07:30:50;;;;;;;13.55;8.45;;;;;;;4.19;100.00;101687.63;5036683;28;20026;-77
2022/11/05 07:33:15;;;;;;;19.42;8.80;;;;;;;4.24;100.00;101688.59;5035328;28;20087;-77
2022/11/05 07:35:41;;;;;;;17.63;8.10;;;;;;;4.30;100.00;101693.06;5031213;28;20076;-77
2022/11/05 07:38:07;;;;;;;16.70;9.35;;;;;;;4.35;100.00;101701.88;5033181;28;20048;-77
2022/11/05 07:40:32;;;;;;;13.80;8.35;;;;;;;4.39;100.00;101697.59;5029721;28;20026;-77
2022/11/05 07:43:00;;;;;;;17.52;9.95;;;;;;;4.43;100.00;101700.31;5041465;28;20091;-77
2022/11/05 07:45:28;;;;;;;13.88;7.93;;;;;;;4.49;100.00;101707.38;5042078;28;20045;-72
2022/11/05 07:47:54;;;;;;;17.75;9.77;;;;;;;4.55;100.00;101703.97;5037115;28;20042;-72
2022/11/05 07:50:23;;;;;;;12.50;8.02;;;;;;;4.60;100.00;101700.59;5048727;28;20021;-72
2022/11/05 07:52:49;;;;;;;14.45;8.38;;;;;;;4.65;100.00;101704.16;5039565;28;20029;-72
2022/11/05 07:55:16;;;;;;;22.05;8.10;;;;;;;4.74;100.00;101711.28;5041927;28;20116;-72
2022/11/05 07:57:42;;;;;;;20.60;8.20;;;;;;;4.83;100.00;101702.69;5043778;28;20404;-73
2022/11/05 08:00:11;;;;;;;14.00;7.75;;;;;;;4.89;100.00;101706.28;5048033;28;20066;-72
2022/11/05 08:02:38;;;;;;;13.65;7.47;;;;;;;4.98;100.00;101707.28;5049072;28;20451;-73
2022/11/05 08:05:03;;;;;;;12.13;7.90;;;;;;;5.06;100.00;101705.66;5047029;28;20021;-73
2022/11/05 08:07:29;;;;;;;13.05;7.45;;;;;;;5.13;100.00;101707.50;5051353;28;20045;-73
2022/11/05 08:09:54;;;;;;;15.40;7.45;;;;;;;5.21;100.00;101710.25;5052213;28;20033;-73
2022/11/05 08:12:20;;;;;;;12.50;7.10;;;;;;;5.28;100.00;101709.47;5043244;28;20084;-73
2022/11/05 08:14:45;;;;;;;16.45;7.72;;;;;;;5.36;100.00;101715.69;5043253;28;20026;-72
2022/11/05 08:17:11;;;;;;;14.45;7.68;;;;;;;5.43;100.00;101700.91;5032224;28;20057;-73
2022/11/05 08:19:36;;;;;;;11.38;7.55;;;;;;;5.50;100.00;101706.25;5031519;28;20062;-72
2022/11/05 08:22:02;;;;;;;16.55;7.50;;;;;;;5.54;100.00;101705.44;5031031;28;20041;-73
2022/11/05 08:24:27;;;;;;;12.63;7.75;;;;;;;5.60;100.00;101705.50;5034157;28;20708;-72
2022/11/05 08:26:53;;;;;;;19.48;8.15;;;;;;;5.66;100.00;101704.69;5031043;28;20034;-73
2022/11/05 08:29:18;;;;;;;10.40;7.38;;;;;;;5.72;100.00;101710.03;5015018;28;20048;-72
2022/11/05 08:31:44;;;;;;;15.70;7.63;;;;;;;5.78;100.00;101702.22;5032769;28;20397;-72
2022/11/05 08:34:09;;;;;;;18.13;8.85;;;;;;;5.84;100.00;101711.94;5010834;28;20496;-72
2022/11/05 08:36:35;;;;;;;17.00;8.10;;;;;;;5.91;100.00;101715.50;5032810;28;20037;-73
2022/11/05 08:39:00;;;;;;;15.00;9.02;;;;;;;5.96;100.00;101704.22;5031757;28;20021;-72
2022/11/05 08:41:26;;;;;;;15.80;8.23;;;;;;;6.04;100.00;101706.94;5017360;28;20041;-73
2022/11/05 08:43:55;;;;;;;18.25;8.38;;;;;;;6.12;100.00;101704.38;5025395;28;20107;-73
2022/11/05 08:46:21;;;;;;;13.43;8.05;;;;;;;6.17;100.00;101714.06;5031539;28;20037;-72
2022/11/05 08:48:46;;;;;;;14.55;8.55;;;;;;;6.25;100.00;101706.25;5032658;28;20033;-72
2022/11/05 08:51:12;;;;;;;15.30;7.93;;;;;;;6.32;100.00;101708.09;5032381;28;20329;-73
2022/11/05 08:53:37;;;;;;;19.63;8.48;;;;;;;6.37;100.00;101709.00;5031394;28;20342;-73
2022/11/05 08:56:03;;;;;;;15.32;7.80;;;;;;;6.44;100.00;101705.56;5011263;28;20232;-73
2022/11/05 08:58:28;;;;;;;18.15;7.70;;;;;;;6.51;100.00;101711.78;5031167;28;20026;-73
2022/11/05 09:00:54;;;;;;;18.67;8.15;;;;;;;6.57;100.00;101710.94;5041489;28;20041;-73
2022/11/05 09:03:19;;;;;;;13.60;8.07;;;;;;;6.65;100.00;101706.59;5041407;28;20025;-74
2022/11/05 09:05:45;;;;;;;15.48;8.75;;;;;;;6.73;100.00;101704.06;5029485;28;20117;-73
2022/11/05 09:08:14;;;;;;;15.75;8.48;;;;;;;6.79;99.92;101699.72;5025264;28;20053;-73
2022/11/05 09:10:40;;;;;;;15.20;8.38;;;;;;;6.86;99.27;101708.53;5027722;28;20401;-73
2022/11/05 09:13:06;;;;;;;15.70;8.30;;;;;;;6.92;98.71;101705.94;5029196;28;20028;-72
2022/11/05 09:15:34;;;;;;;14.27;8.38;;;;;;;6.99;99.12;101702.47;5030598;28;20403;-72
2022/11/05 09:18:01;;;;;;;13.98;8.18;;;;;;;7.06;99.59;101701.66;5032319;28;20368;-72
2022/11/05 09:20:26;;;;;;;12.32;7.10;;;;;;;7.18;99.23;101708.75;5027976;28;20057;-72
2022/11/05 09:22:52;;;;;;;10.63;6.78;;;;;;;7.26;99.29;101707.03;5030691;28;20029;-72
2022/11/05 09:25:18;;;;;;;12.70;6.82;;;;;;;7.35;96.67;101697.44;5030661;28;20063;-72
2022/11/05 09:27:44;;;;;;;14.90;7.05;;;;;;;7.41;95.74;101708.88;5030864;28;20017;-72
2022/11/05 09:30:11;;;;;;;17.95;7.05;;;;;;;7.49;95.23;101704.53;5028995;28;20064;-72
2022/11/05 09:32:37;;;;;;;10.15;6.20;;;;;;;7.60;95.34;101701.06;5030729;28;20397;-72
2022/11/05 09:35:04;;;;;;;13.80;6.63;;;;;;;7.68;96.07;101709.88;5028458;28;20087;-72
2022/11/05 09:37:29;;;;;;;15.48;6.10;;;;;;;7.74;95.33;101704.66;5030979;28;20087;-72
2022/11/05 09:39:55;;;;;;;10.75;6.57;;;;;;;7.80;95.34;101709.06;5029138;28;20041;-79
2022/11/05 09:42:25;;;;;;;10.73;6.47;;;;;;;7.86;95.26;101715.22;5016051;28;20044;-79
2022/11/05 09:45:17;;;;;;;12.90;6.80;;;;;;;7.94;94.78;101715.25;5029922;28;20112;-79
2022/11/05 09:47:54;;;;;;;9.13;6.18;;;;;;;8.09;94.21;101714.41;5029809;28;20056;-80
2022/11/05 09:50:41;;;;;;;13.00;6.30;;;;;;;8.21;92.74;101714.44;5031582;28;20037;-79
2022/11/05 09:53:12;;;;;;;13.82;6.60;;;;;;;8.26;92.41;101720.59;5031178;28;20136;-79
2022/11/05 09:55:40;;;;;;;;;;;;;;;8.38;92.24;101723.25;5031992;28;20029;-80
2022/11/05 09:58:32;;;;;;;10.63;5.80;;;;;;;8.47;92.16;101732.09;5031234;28;20357;-80
2022/11/05 10:00:58;;;;;;;10.70;5.68;;;;;;;8.56;91.48;101726.84;5031037;28;20416;-80
2022/11/05 10:03:25;;;;;;;10.18;5.72;;;;;;;8.64;91.47;101729.47;5026612;28;20037;-80
2022/11/05 10:05:53;;;;;;;10.93;5.97;;;;;;;8.68;91.27;101734.75;5017175;28;20199;-80
2022/11/05 10:08:41;;;;;;;12.75;5.80;;;;;;;8.71;91.21;101734.75;5031122;28;20116;-80
2022/11/05 10:11:20;;;;;;;10.23;5.78;;;;;;;8.73;90.72;101737.38;5025923;28;20080;-80
2022/11/05 10:13:51;;;;;;;14.45;6.00;;;;;;;8.73;90.81;101743.56;5034075;28;20065;-80
2022/11/05 10:16:26;;;;;;;13.73;6.13;;;;;;;8.75;90.52;101741.81;5030740;28;20527;-80
2022/11/05 10:19:04;;;;;;;10.82;5.78;;;;;;;8.78;90.87;101752.38;5044170;28;20174;-80
2022/11/05 10:21:30;;;;;;;10.75;5.72;;;;;;;8.81;90.76;101751.47;5040386;28;20128;-80
2022/11/05 10:23:56;;;;;;;11.85;5.50;;;;;;;8.83;90.21;101752.38;5027657;28;20155;-80
2022/11/05 10:26:26;;;;;;;8.55;4.63;;;;;;;8.88;91.16;101755.88;5043929;28;20181;-80
2022/11/05 10:28:52;;;;;;;13.27;5.75;;;;;;;8.93;88.67;101755.91;5029244;28;20041;-81
2022/11/05 10:31:20;;;;;;;12.30;5.75;;;;;;;8.90;88.63;101758.50;5029197;28;20041;-73
2022/11/05 10:33:52;;;;;;;9.02;5.72;;;;;;;8.90;89.84;101763.78;5029684;28;20472;-81
2022/11/05 10:36:24;;;;;;;11.73;5.05;;;;;;;8.91;90.36;101761.16;5026550;28;20037;-73
2022/11/05 10:38:51;;;;;;;9.82;5.55;;;;;;;8.95;89.92;101751.47;5014901;28;20113;-74
2022/11/05 10:41:35;;;;;;;11.95;6.13;;;;;;;8.99;89.67;101759.38;5027204;28;20096;-73
2022/11/05 10:44:24;;;;;;;11.05;5.45;;;;;;;8.98;89.16;101759.41;5029084;28;20033;-73
2022/11/05 10:46:56;;;;;;;9.38;5.50;;;;;;;8.99;89.67;101755.88;5030269;28;20033;-73
2022/11/05 10:49:28;;;;;;;9.40;4.82;;;;;;;9.02;88.64;101755.88;5030287;28;20152;-74
2022/11/05 10:51:56;;;;;;;16.08;6.20;;;;;;;9.02;89.56;101747.94;5030571;28;20033;-74
2022/11/05 10:54:28;;;;;;;13.23;5.55;;;;;;;9.03;89.46;101747.94;5030311;28;20017;-73
2022/11/05 10:56:53;;;;;;;13.50;6.05;;;;;;;9.06;89.92;101744.41;5030208;28;20041;-74
2022/11/05 10:59:27;;;;;;;15.82;5.97;;;;;;;9.11;89.75;101744.41;5012235;28;20032;-74
2022/11/05 11:01:59;;;;;;;16.02;5.85;;;;;;;9.13;89.07;101746.19;5031945;28;20473;-73
2022/11/05 11:04:27;;;;;;;8.82;5.10;;;;;;;9.15;88.18;101757.63;5040062;28;20165;-73
2022/11/05 11:06:56;;;;;;;13.45;5.38;;;;;;;9.21;89.28;101749.69;5035236;28;20473;-74
2022/11/05 11:09:35;;;;;;;15.40;5.97;;;;;;;9.19;87.14;101751.44;5030289;28;20524;-73
2022/11/05 11:12:06;;;;;;;13.43;5.40;;;;;;;9.17;86.97;101752.31;5030179;28;20033;-73
2022/11/05 11:14:32;;;;;;;12.02;6.25;;;;;;;9.15;86.69;101754.09;5018406;28;20033;-74
2022/11/05 11:17:23;;;;;;;11.50;5.78;;;;;;;9.22;86.95;101747.91;5020131;28;20045;-73
2022/11/05 11:19:48;;;;;;;;;;;;;;;9.26;87.35;101747.91;5022172;28;20076;-73
2022/11/05 11:22:18;;;;;;;7.43;4.65;;;;;;;9.26;86.44;101745.25;5033532;28;19917;-73
2022/11/05 11:24:47;;;;;;;10.73;5.70;;;;;;;9.30;87.28;101740.88;5039427;28;20029;-73
2022/11/05 11:27:21;;;;;;;11.98;5.57;;;;;;;9.35;87.40;101744.38;5019235;28;20020;-73
2022/11/05 11:30:05;;;;;;;12.27;5.95;;;;;;;9.45;87.04;101735.53;5022282;28;20092;-73
2022/11/05 11:32:36;;;;;;;16.40;5.63;;;;;;;9.47;85.93;101727.59;5034445;28;20132;-73
2022/11/05 11:35:04;;;;;;;10.68;6.25;;;;;;;9.50;86.69;101727.59;5032021;28;20370;-73
2022/11/05 11:37:40;;;;;;;12.93;5.70;;;;;;;9.60;85.45;101731.09;4997202;28;20037;-74
2022/11/05 11:40:16;;;;;;;14.88;6.72;;;;;;;9.75;86.23;101738.97;5031782;28;20046;-73
2022/11/05 11:42:48;;;;;;;16.08;5.95;;;;;;;10.02;83.75;101745.88;5030653;28;20045;-74
2022/11/05 11:45:23;;;;;;;13.23;5.65;;;;;;;10.22;82.96;101737.84;5019053;28;20135;-73
2022/11/05 11:47:49;;;;;;;13.05;6.45;;;;;;;10.47;88.02;101730.63;5021895;28;20117;-74
2022/11/05 11:50:45;;;;;;;14.52;6.65;;;;;;;10.84;86.75;101726.81;5031343;28;20108;-74
2022/11/05 11:53:20;;;;;;;13.98;6.18;;;;;;;11.16;82.22;101719.44;5030101;28;20049;-74
2022/11/05 11:55:54;;;;;;;13.95;5.53;;;;;;;11.39;80.20;101720.97;5020244;28;20044;-73
2022/11/05 11:58:22;;;;;;;8.88;5.00;;;;;;;11.53;78.74;101726.13;5018680;28;20056;-74
2022/11/05 12:01:08;;;;;;;8.32;4.57;;;;;;;11.63;78.03;101725.13;5034362;28;20025;-74
2022/11/05 12:03:54;;;;;;;11.80;4.90;;;;;;;11.61;76.18;101718.94;5047044;28;20050;-74
2022/11/05 12:07:02;;;;;;;9.57;4.90;;;;;;;11.65;74.73;101717.13;5041959;28;20045;-73
2022/11/05 12:10:04;;;;;;;9.05;4.32;;;;;;;11.68;76.40;101714.44;5029312;28;20029;-74
2022/11/05 12:13:16;;;;;;;8.05;4.15;;;;;;;11.78;75.95;101706.34;5034278;28;20033;-74